Data for 07/19/2016

Time Sea-Level Adjusted Pressure Absolute Pressure Temperature Relative Humidity Dew Point   
(mb) (inHg) (mb) (inHg) (C) (F) (%) (C) (F)
00:05 1018 30.06 847 25.01 19.8 67.7 21 -3 26.5
00:10 1018 30.06 847 25.01 20 68 21 -2.7 27.1
00:15 1018 30.06 847 25.01 20.1 68.1 21 -2.9 26.8
00:20 1018 30.06 847 25.01 20.2 68.3 21 -2.7 27.1
00:25 1018 30.06 847 25.01 19.9 67.9 22 -2.4 27.8
00:30 1018 30.06 847 25.01 19.8 67.6 22 -2.3 27.9
00:35 1018 30.06 847 25.01 19.8 67.6 22 -2.4 27.6
00:40 1018 30.06 848 25.04 19.7 67.4 23 -2 28.3
00:45 1018 30.06 848 25.04 19.1 66.4 25 -1.3 29.6
00:50 1018 30.06 848 25.04 18.5 65.4 26 -1.3 29.7
00:55 1019 30.09 848 25.04 18.2 64.8 26 -1.6 29.2
01:00 1019 30.09 848 25.04 18 64.4 27 -1.1 30.1
01:05 1019 30.09 848 25.04 18 64.3 28 -0.7 30.8
01:10 1019 30.09 848 25.04 18 64.3 27 -1.3 29.6
01:15 1019 30.09 848 25.04 18.1 64.5 27 -1.1 30
01:20 1019 30.09 848 25.04 18.1 64.6 29 -0.2 31.6
01:25 1019 30.09 848 25.04 17.7 63.8 30 -0.1 31.9
01:30 1019 30.09 848 25.04 17.5 63.5 30 -0.2 31.6
01:35 1019 30.09 848 25.04 17.3 63.1 30 -0.1 31.7
01:40 1019 30.09 848 25.04 16.8 62.2 33 0.4 32.7
01:45 1019 30.09 848 25.04 16.2 61.1 33 0.1 32.2
01:50 1019 30.09 848 25.04 16.1 60.9 34 0.5 32.9
01:55 1019 30.09 848 25.04 16.1 60.9 34 0.2 32.3
02:00 1019 30.09 848 25.04 16.1 61 33 0.1 32.1
02:05 1019 30.09 848 25.04 16.4 61.5 31 -0.6 30.8
02:10 1019 30.09 848 25.04 16.7 62 31 -0.5 31.1
02:15 1019 30.09 848 25.04 16.8 62.2 29 -1.4 29.5
02:20 1019 30.09 848 25.04 17.3 63.1 29 -0.7 30.8
02:25 1019 30.09 848 25.04 17.2 63 28 -1.1 30
02:30 1019 30.09 848 25.04 16.8 62.2 30 -0.7 30.7
02:35 1019 30.09 848 25.04 16.4 61.4 31 -0.6 30.9
02:40 1019 30.09 848 25.04 16.1 61 34 0.4 32.7
02:45 1019 30.09 848 25.04 16 60.7 32 -0.5 31
02:50 1019 30.09 848 25.04 16.3 61.3 30 -1.2 29.9
02:55 1019 30.09 848 25.04 16.4 61.4 32 -0.4 31.2
03:00 1019 30.09 848 25.04 16.3 61.3 33 -0 31.9
03:05 1019 30.09 848 25.04 16.1 60.9 33 -0.1 31.9
03:10 1019 30.09 848 25.04 15.9 60.6 31 -0.9 30.4
03:15 1019 30.09 848 25.04 15.7 60.2 33 -0.3 31.4
03:20 1019 30.09 848 25.04 15.6 60.1 32 -0.8 30.5
03:25 1019 30.09 848 25.04 15.4 59.6 33 -0.6 31
03:30 1019 30.09 849 25.07 15.1 59.2 34 -0.7 30.7
03:35 1019 30.09 849 25.07 15.2 59.4 32 -1.2 29.9
03:40 1019 30.09 849 25.07 15.8 60.4 29 -2.2 28.1
03:45 1020 30.12 849 25.07 16.4 61.6 27 -2.3 27.8
03:50 1020 30.12 849 25.07 16.7 62.1 29 -1.3 29.7
03:55 1020 30.12 849 25.07 16.2 61.1 31 -1.1 30.1
04:00 1020 30.12 849 25.07 15.9 60.6 32 -0.6 30.9
04:05 1020 30.12 849 25.07 15.5 59.9 33 -0.4 31.2
04:10 1020 30.12 849 25.07 15 59.1 34 -0.7 30.8
04:15 1020 30.12 849 25.07 14.8 58.6 33 -1.4 29.5
04:20 1020 30.12 849 25.07 15 59 33 -1.2 29.8
04:25 1020 30.12 849 25.07 15.3 59.6 31 -1.8 28.8
04:30 1020 30.12 849 25.07 15.6 60.1 29 -2.1 28.2
04:35 1020 30.12 849 25.07 15.9 60.6 28 -2.4 27.7
04:40 1020 30.12 849 25.07 16.3 61.4 28 -2.3 27.9
04:45 1020 30.12 849 25.07 16.7 62.1 26 -2.8 27
04:50 1020 30.12 849 25.07 16.9 62.5 29 -1.3 29.7
04:55 1020 30.12 849 25.07 16.3 61.3 37 1.5 34.7
05:00 1020 30.12 849 25.07 16.2 61.2 31 -0.7 30.8
05:05 1020 30.12 849 25.07 15.6 60 36 0.6 33.1
05:10 1020 30.12 849 25.07 15 59 35 -0.3 31.4
05:15 1020 30.12 849 25.07 14.6 58.2 35 -0.8 30.6
05:20 1020 30.12 849 25.07 14.5 58.2 40 1 33.9
05:25 1020 30.12 849 25.07 14.1 57.3 39 0.6 33.1
05:30 1020 30.12 849 25.07 14 57.1 41 1.1 34.1
05:35 1020 30.12 849 25.07 14.3 57.7 35 -0.9 30.5
05:40 1020 30.12 850 25.1 14.9 58.9 35 -0.2 31.6
05:45 1020 30.12 850 25.1 15.2 59.3 33 -1.1 30
05:50 1020 30.12 850 25.1 15.3 59.6 35 0.1 32.3
05:55 1020 30.12 849 25.07 15.1 59.3 34 -0.6 30.9
06:00 1020 30.12 850 25.1 15.2 59.4 35 0.1 32.2
06:05 1020 30.12 850 25.1 15.2 59.3 36 0.2 32.4
06:10 1020 30.12 849 25.07 15.5 59.9 34 -0.2 31.6
06:15 1020 30.12 850 25.1 15.9 60.6 33 -0.1 31.7
06:20 1020 30.12 850 25.1 16.3 61.4 33 0 32
06:25 1020 30.12 850 25.1 16.7 62 36 1.7 35
06:30 1020 30.12 849 25.07 17 62.6 32 0.5 32.9
06:35 1020 30.12 849 25.07 17.2 62.9 33 0.9 33.6
06:40 1020 30.12 850 25.1 17.5 63.5 32 0.7 33.3
06:45 1020 30.12 850 25.1 17.7 63.8 33 1.2 34.2
06:50 1020 30.12 850 25.1 18 64.4 32 1.1 33.9
06:55 1020 30.12 850 25.1 18.3 64.9 34 2.1 35.7
07:00 1020 30.12 850 25.1 18.2 64.8 34 2.2 35.9
07:05 1020 30.12 850 25.1 18.5 65.2 31 1 33.7
07:10 1020 30.12 850 25.1 18.7 65.7 32 1.9 35.4
07:15 1020 30.12 850 25.1 19.1 66.4 31 1.6 34.9
07:20 1020 30.12 850 25.1 19 66.3 32 2.1 35.8
07:25 1020 30.12 850 25.1 19.4 67 31 2.2 36
07:30 1020 30.12 850 25.1 19.6 67.3 32 2.6 36.6
07:35 1020 30.12 850 25.1 20 68 31 2.5 36.6
07:40 1020 30.12 850 25.1 20.5 68.8 30 2.6 36.6
07:45 1020 30.12 850 25.1 21.3 70.3 29 3 37.3
07:50 1020 30.12 850 25.1 22.4 72.3 26 2.3 36.2
07:55 1020 30.12 850 25.1 22.7 72.9 26 2.6 36.7
08:00 1020 30.12 850 25.1 23.1 73.6 26 2.8 37
08:05 1020 30.12 850 25.1 23.2 73.7 26 2.8 37
08:10 1020 30.12 850 25.1 23.6 74.5 23 1.7 35
08:15 1020 30.12 850 25.1 23.5 74.3 24 1.7 35.1
08:20 1021 30.15 850 25.1 24.1 75.3 23 1.7 35
08:25 1021 30.15 850 25.1 24.3 75.7 18 -1.2 29.9
08:30 1021 30.15 850 25.1 23.8 74.8 22 1.3 34.4
08:35 1021 30.15 850 25.1 24.2 75.6 23 2.2 36
08:40 1020 30.12 850 25.1 23.9 74.9 23 1.9 35.4
08:45 1020 30.12 850 25.1 24.2 75.6 23 2.1 35.7
08:50 1020 30.12 850 25.1 24.9 76.8 22 1.7 35.1
08:55 1020 30.12 850 25.1 25.5 77.9 23 3.2 37.8
09:00 1020 30.12 850 25.1 26 78.8 20 1.6 34.8
09:05 1020 30.12 850 25.1 26.3 79.3 20 2 35.6
09:10 1020 30.12 850 25.1 25.7 78.2 22 2.8 37
09:15 1020 30.12 850 25.1 25.4 77.7 23 2.8 37
09:20 1020 30.12 850 25.1 25.8 78.4 22 2.6 36.7
09:25 1020 30.12 849 25.07 25.1 77.2 23 3 37.4
09:30 1020 30.12 849 25.07 25.3 77.5 24 3.7 38.6
09:35 1020 30.12 849 25.07 25.4 77.8 24 3.7 38.7
09:40 1020 30.12 849 25.07 25.3 77.6 24 3.6 38.5
09:45 1020 30.12 849 25.07 26.3 79.3 22 3.1 37.6
09:50 1020 30.12 849 25.07 27 80.6 20 2.6 36.7
09:55 1020 30.12 849 25.07 27.5 81.5 20 2.6 36.7
10:00 1020 30.12 849 25.07 27.4 81.2 21 3.2 37.8
10:05 1020 30.12 849 25.07 26.7 80 21 2.7 36.9
10:10 1020 30.12 849 25.07 27.1 80.7 21 3.3 37.9
10:15 1020 30.12 849 25.07 26.9 80.4 21 2.7 36.9
10:20 1020 30.12 849 25.07 27.4 81.2 20 2.8 37.1
10:25 1020 30.12 849 25.07 28.2 82.8 18 2.3 36.2
10:30 1020 30.12 849 25.07 28.4 83.2 19 2.8 37
10:35 1020 30.12 849 25.07 27.2 80.9 20 2.8 37
10:40 1020 30.12 849 25.07 27.2 80.9 20 2.3 36.2
10:45 1020 30.12 849 25.07 28.3 82.9 21 3.9 38.9
10:50 1020 30.12 849 25.07 28.5 83.3 20 4 39.2
10:55 1020 30.12 849 25.07 28.7 83.6 20 3.6 38.4
11:00 1020 30.12 849 25.07 28.5 83.2 22 5.3 41.6
11:05 1020 30.12 849 25.07 28.8 83.8 19 3.5 38.3
11:10 1020 30.12 849 25.07 28.7 83.6 20 3.8 38.9
11:15 1020 30.12 849 25.07 28.6 83.4 21 4.6 40.3
11:20 1019 30.09 849 25.07 28.9 84 21 4.7 40.5
11:25 1019 30.09 849 25.07 29.4 85 20 4.2 39.5
11:30 1019 30.09 849 25.07 29.4 84.9 20 4.5 40.1
11:35 1019 30.09 849 25.07 28.3 82.9 21 4 39.1
11:40 1019 30.09 848 25.04 29.1 84.4 19 3.3 38
11:45 1019 30.09 848 25.04 29.9 85.8 19 4.2 39.5
11:50 1019 30.09 848 25.04 30 85.9 18 3.7 38.6
11:55 1019 30.09 848 25.04 30.2 86.3 18 3.7 38.7
12:00 1019 30.09 848 25.04 30.6 87.2 16 2.6 36.7
12:05 1019 30.09 848 25.04 30.7 87.3 14 0.5 32.9
12:10 1019 30.09 848 25.04 30 85.9 14 0.3 32.6
12:15 1019 30.09 848 25.04 30.1 86.1 14 0.1 32.3
12:20 1019 30.09 848 25.04 29.8 85.6 14 -0.1 31.8
12:25 1019 30.09 848 25.04 30.1 86.2 14 0 32.1
12:30 1019 30.09 848 25.04 30.2 86.4 15 1.2 34.2
12:35 1019 30.09 848 25.04 30.1 86.1 15 0.6 33.2
12:40 1019 30.09 848 25.04 31.2 88.1 13 -0.3 31.5
12:45 1019 30.09 848 25.04 31.8 89.2 12 -0.4 31.2
12:50 1019 30.09 848 25.04 32.3 90.1 13 0.6 33.1
12:55 1019 30.09 848 25.04 32.3 90.2 13 0.8 33.4
13:00 1019 30.09 848 25.04 31.3 88.3 12 -0.6 30.9
13:05 1019 30.09 848 25.04 30.7 87.3 13 -0.4 31.3
13:10 1019 30.09 848 25.04 31.2 88.1 13 -0.2 31.6
13:15 1019 30.09 848 25.04 31.4 88.5 14 1.3 34.3
13:20 1019 30.09 848 25.04 31.2 88.1 19 5.4 41.8
13:25 1019 30.09 848 25.04 29.7 85.4 22 6.1 43
13:30 1019 30.09 848 25.04 29.2 84.5 22 5.7 42.3
13:35 1019 30.09 848 25.04 28.8 83.9 23 6 42.7
13:40 1019 30.09 848 25.04 28.3 83 23 5.5 41.9
13:45 1019 30.09 848 25.04 28 82.4 24 5.8 42.4
13:50 1018 30.06 848 25.04 28.1 82.6 22 4.9 40.8
13:55 1018 30.06 848 25.04 28.6 83.6 22 5.2 41.4
14:00 1018 30.06 848 25.04 28.5 83.3 21 4.4 39.8
14:05 1018 30.06 848 25.04 28.1 82.6 23 5.6 42.1
14:10 1018 30.06 848 25.04 28 82.4 25 6.5 43.6
14:15 1018 30.06 847 25.01 27.7 81.9 27 7.5 45.4
14:20 1018 30.06 847 25.01 27.8 82 27 7.4 45.4
14:25 1018 30.06 847 25.01 28.2 82.8 30 9.4 48.9
14:30 1018 30.06 847 25.01 27.8 82.1 31 9.6 49.3
14:35 1018 30.06 847 25.01 27.5 81.5 31 9.2 48.5
14:40 1018 30.06 847 25.01 28.2 82.7 26 6.9 44.5
14:45 1018 30.06 847 25.01 28.8 83.9 25 6.9 44.4
14:50 1018 30.06 847 25.01 29.8 85.6 20 4.6 40.2
14:55 1018 30.06 847 25.01 30.4 86.6 20 5 41
15:00 1018 30.06 847 25.01 30.9 87.6 14 0.2 32.4
15:05 1018 30.06 847 25.01 31.4 88.5 14 1.5 34.6
15:10 1018 30.06 847 25.01 31.6 88.9 14 1.5 34.8
15:15 1018 30.06 847 25.01 32.2 89.9 13 0.5 32.9
15:20 1018 30.06 847 25.01 32.7 90.8 13 0.8 33.4
15:25 1017 30.03 847 25.01 32.5 90.5 13 0.9 33.5
15:30 1017 30.03 847 25.01 32.1 89.8 13 0.2 32.4
15:35 1017 30.03 847 25.01 32.5 90.5 11 -0.9 30.3
15:40 1017 30.03 847 25.01 32.5 90.5 12 -0.5 31
15:45 1017 30.03 846 24.98 32.3 90.2 11 -1 30.1
15:50 1017 30.03 846 24.98 32.7 90.9 11 -0.7 30.7
15:55 1017 30.03 846 24.98 33.3 91.9 12 -0.1 31.9
16:00 1017 30.03 846 24.98 33.9 92.9 12 0.4 32.7
16:05 1017 30.03 846 24.98 33.4 92 11 -0.8 30.6
16:10 1017 30.03 846 24.98 32.6 90.6 10 -2.3 27.9
16:15 1017 30.03 846 24.98 32.8 91 9 -3.6 25.5
16:20 1017 30.03 846 24.98 32.5 90.4 10 -2.6 27.3
16:25 1017 30.03 846 24.98 32.4 90.2 9 -3.7 25.3
16:30 1017 30.03 846 24.98 32.4 90.3 9 -3.7 25.4
16:35 1017 30.03 846 24.98 32.1 89.8 10 -3.4 25.9
16:40 1017 30.03 846 24.98 32.2 89.9 9 -3.9 25
16:45 1017 30.03 846 24.98 32.4 90.2 10 -3.1 26.4
16:50 1017 30.03 846 24.98 32.3 90.1 9 -4.6 23.7
16:55 1017 30.03 846 24.98 32.1 89.8 9 -4.6 23.7
17:00 1017 30.03 846 24.98 32.1 89.7 10 -2.5 27.4
17:05 1017 30.03 846 24.98 31.9 89.4 10 -3.8 25.2
17:10 1017 30.03 846 24.98 32 89.5 9 -4 24.7
17:15 1017 30.03 846 24.98 32.1 89.8 10 -3.4 25.9
17:20 1017 30.03 846 24.98 32.1 89.8 9 -4.6 23.7
17:25 1017 30.03 846 24.98 32.1 89.7 10 -3.7 25.4
17:30 1017 30.03 846 24.98 32 89.5 10 -3.3 26.1
17:35 1017 30.03 846 24.98 31.9 89.3 10 -3.1 26.5
17:40 1017 30.03 846 24.98 31.7 89 10 -3.2 26.3
17:45 1017 30.03 846 24.98 31.5 88.7 10 -3.9 25
17:50 1017 30.03 846 24.98 31.2 88.2 11 -2.4 27.7
17:55 1017 30.03 846 24.98 31.2 88.2 10 -4.3 24.2
18:00 1017 30.03 846 24.98 31.3 88.4 9 -4.3 24.2
18:05 1017 30.03 846 24.98 31.2 88.2 11 -2.4 27.7
18:10 1017 30.03 846 24.98 31.1 88 10 -3.2 26.2
18:15 1017 30.03 846 24.98 30.9 87.7 10 -3.6 25.6
18:20 1017 30.03 846 24.98 30.8 87.4 10 -4.1 24.6
18:25 1017 30.03 846 24.98 30.5 86.9 10 -4.6 23.6
18:30 1017 30.03 846 24.98 30.4 86.7 10 -4.9 23.2
18:35 1017 30.03 846 24.98 30.3 86.6 9 -6.1 21.1
18:40 1017 30.03 846 24.98 30.4 86.8 9 -5.6 21.9
18:45 1017 30.03 846 24.98 30.3 86.6 9 -5.3 22.4
18:50 1017 30.03 846 24.98 30.1 86.2 10 -4.6 23.7
18:55 1017 30.03 846 24.98 29.9 85.8 10 -4.3 24.3
19:00 1017 30.03 846 24.98 29.7 85.4 11 -4.1 24.6
19:05 1017 30.03 846 24.98 29.5 85.1 12 -2.3 27.9
19:10 1017 30.03 846 24.98 28.8 83.8 13 -2.2 28
19:15 1017 30.03 846 24.98 28.7 83.6 12 -3 26.7
19:20 1017 30.03 846 24.98 28.6 83.4 13 -2.5 27.5
19:25 1017 30.03 846 24.98 28.5 83.3 12 -3.4 26
19:30 1017 30.03 846 24.98 28.7 83.6 11 -3.8 25.1
19:35 1017 30.03 846 24.98 28.6 83.4 12 -3.8 25.2
19:40 1017 30.03 846 24.98 28.3 83 11 -4.6 23.8
19:45 1017 30.03 846 24.98 28.3 83 11 -4.2 24.4
19:50 1017 30.03 846 24.98 28.3 82.9 11 -5.2 22.6
19:55 1017 30.03 846 24.98 28.7 83.7 11 -4.9 23.2
20:00 1017 30.03 846 24.98 28.5 83.4 11 -4.9 23.1
20:05 1017 30.03 846 24.98 28.4 83.2 11 -5 23.1
20:10 1017 30.03 846 24.98 28.3 83 11 -4.7 23.5
20:15 1017 30.03 846 24.98 28.1 82.6 11 -5.3 22.5
20:20 1017 30.03 846 24.98 28.1 82.6 11 -4.6 23.8
20:25 1017 30.03 846 24.98 27.7 81.8 11 -4.7 23.6
20:30 1017 30.03 846 24.98 27.6 81.6 11 -5 23
20:35 1017 30.03 847 25.01 27.7 81.8 11 -5.6 21.8
20:40 1017 30.03 847 25.01 27.7 81.9 12 -4.5 23.9
20:45 1017 30.03 847 25.01 27.3 81.1 11 -5.3 22.5
20:50 1017 30.03 847 25.01 27.2 81 11 -5.1 22.8
20:55 1017 30.03 847 25.01 27.2 80.9 11 -5.1 22.9
21:00 1017 30.03 847 25.01 27 80.6 11 -5.3 22.5
21:05 1017 30.03 847 25.01 26.9 80.4 11 -5.3 22.4
21:10 1018 30.06 847 25.01 27 80.6 11 -5.6 21.9
21:15 1018 30.06 847 25.01 27.3 81.1 11 -5.5 22
21:20 1018 30.06 847 25.01 27.2 81 11 -5.5 22.2
21:25 1018 30.06 847 25.01 26.9 80.5 12 -5.2 22.7
21:30 1018 30.06 847 25.01 26.7 80 12 -5.2 22.6
21:35 1018 30.06 847 25.01 26.6 79.9 11 -5.8 21.6
21:40 1018 30.06 847 25.01 26.8 80.2 11 -6 21.1
21:45 1018 30.06 847 25.01 26.8 80.3 11 -6 21.2
21:50 1018 30.06 847 25.01 26.9 80.5 11 -6.4 20.5
21:55 1018 30.06 847 25.01 27 80.6 11 -6 21.3
22:00 1018 30.06 847 25.01 26.7 80.1 11 -6.5 20.3
22:05 1018 30.06 847 25.01 26.8 80.2 11 -6.2 20.9
22:10 1018 30.06 847 25.01 26.4 79.5 11 -5.9 21.4
22:15 1018 30.06 847 25.01 26.2 79.1 11 -6.6 20.1
22:20 1018 30.06 847 25.01 26.4 79.4 11 -6.8 19.7
22:25 1018 30.06 847 25.01 26.4 79.6 11 -6.5 20.3
22:30 1018 30.06 847 25.01 26.4 79.5 11 -6.5 20.2
22:35 1018 30.06 847 25.01 26.1 79 11 -6.1 21
22:40 1018 30.06 847 25.01 25.8 78.5 11 -6.3 20.6
22:45 1018 30.06 847 25.01 25.7 78.2 11 -6.3 20.6
22:50 1018 30.06 847 25.01 25.4 77.6 12 -6.4 20.5
22:55 1018 30.06 847 25.01 25.3 77.6 11 -6.5 20.3
23:00 1018 30.06 847 25.01 25.4 77.6 12 -6.4 20.5
23:05 1018 30.06 847 25.01 25.3 77.5 11 -6.5 20.2
23:10 1018 30.06 847 25.01 25.2 77.4 12 -6.2 20.8
23:15 1018 30.06 847 25.01 25 77.1 12 -6.6 20.1
23:20 1018 30.06 847 25.01 25.1 77.1 12 -6.4 20.4
23:25 1018 30.06 847 25.01 25.2 77.3 11 -6.6 20.1
23:30 1018 30.06 848 25.04 24.8 76.7 14 -4.4 24.1
23:35 1019 30.09 848 25.04 22.7 72.8 17 -3.1 26.5
23:40 1019 30.09 848 25.04 21.6 70.8 19 -2.9 26.8
23:45 1019 30.09 848 25.04 21.3 70.4 18 -3.9 25
23:50 1019 30.09 848 25.04 21.7 71 17 -4.1 24.7
23:55 1019 30.09 848 25.04 21.9 71.3 17 -3.9 24.9
24:00 1019 30.09 848 25.04 21.8 71.2 18 -3.7 25.3